sensor_id;sensor_type;location;lat;lon;timestamp;pressure;altitude;pressure_sealevel;temperature;humidity
70971;BME280;58632;51.718;19.446;2023-03-15T00:01:56;98213.38;;;3.60;100.00
70971;BME280;58632;51.718;19.446;2023-03-15T00:04:21;98222.38;;;3.56;100.00
70971;BME280;58632;51.718;19.446;2023-03-15T00:06:49;98226.34;;;3.51;100.00
70971;BME280;58632;51.718;19.446;2023-03-15T00:09:15;98231.09;;;3.50;100.00
70971;BME280;58632;51.718;19.446;2023-03-15T00:11:40;98246.71;;;3.49;100.00
70971;BME280;58632;51.718;19.446;2023-03-15T00:14:06;98248.59;;;3.48;100.00
70971;BME280;58632;51.718;19.446;2023-03-15T00:16:31;98258.41;;;3.45;100.00
70971;BME280;58632;51.718;19.446;2023-03-15T00:18:57;98258.84;;;3.39;100.00
70971;BME280;58632;51.718;19.446;2023-03-15T00:21:22;98273.28;;;3.35;100.00
70971;BME280;58632;51.718;19.446;2023-03-15T00:23:48;98288.25;;;3.33;100.00
70971;BME280;58632;51.718;19.446;2023-03-15T00:26:14;98297.45;;;3.29;100.00
70971;BME280;58632;51.718;19.446;2023-03-15T00:28:39;98300.67;;;3.22;100.00
70971;BME280;58632;51.718;19.446;2023-03-15T00:33:36;98306.25;;;3.10;100.00
70971;BME280;58632;51.718;19.446;2023-03-15T00:36:03;98318.16;;;3.06;100.00
70971;BME280;58632;51.718;19.446;2023-03-15T00:38:29;98332.00;;;3.00;100.00
70971;BME280;58632;51.718;19.446;2023-03-15T00:40:56;98340.21;;;2.93;100.00
70971;BME280;58632;51.718;19.446;2023-03-15T00:43:21;98340.13;;;2.90;100.00
70971;BME280;58632;51.718;19.446;2023-03-15T00:45:47;98344.48;;;2.89;100.00
70971;BME280;58632;51.718;19.446;2023-03-15T00:48:13;98347.02;;;2.87;100.00
70971;BME280;58632;51.718;19.446;2023-03-15T00:50:39;98357.14;;;2.81;100.00
70971;BME280;58632;51.718;19.446;2023-03-15T00:53:04;98366.86;;;2.77;100.00
70971;BME280;58632;51.718;19.446;2023-03-15T00:55:30;98379.86;;;2.76;100.00
70971;BME280;58632;51.718;19.446;2023-03-15T00:57:55;98387.58;;;2.76;100.00
70971;BME280;58632;51.718;19.446;2023-03-15T01:00:22;98403.79;;;2.74;100.00
70971;BME280;58632;51.718;19.446;2023-03-15T01:02:51;98418.19;;;2.69;100.00
70971;BME280;58632;51.718;19.446;2023-03-15T01:05:17;98430.80;;;2.67;100.00
70971;BME280;58632;51.718;19.446;2023-03-15T01:07:43;98437.20;;;2.66;100.00
70971;BME280;58632;51.718;19.446;2023-03-15T01:10:11;98436.50;;;2.66;100.00
70971;BME280;58632;51.718;19.446;2023-03-15T01:12:37;98443.50;;;2.66;100.00
70971;BME280;58632;51.718;19.446;2023-03-15T01:15:05;98450.88;;;2.64;100.00
70971;BME280;58632;51.718;19.446;2023-03-15T01:17:32;98444.84;;;2.61;100.00
70971;BME280;58632;51.718;19.446;2023-03-15T01:19:58;98442.88;;;2.57;100.00
70971;BME280;58632;51.718;19.446;2023-03-15T01:22:23;98449.39;;;2.55;100.00
70971;BME280;58632;51.718;19.446;2023-03-15T01:24:49;98455.27;;;2.53;100.00
70971;BME280;58632;51.718;19.446;2023-03-15T01:27:14;98461.18;;;2.52;100.00
70971;BME280;58632;51.718;19.446;2023-03-15T01:29:40;98464.29;;;2.51;100.00
70971;BME280;58632;51.718;19.446;2023-03-15T01:32:05;98473.78;;;2.49;100.00
70971;BME280;58632;51.718;19.446;2023-03-15T01:34:34;98480.98;;;2.51;100.00
70971;BME280;58632;51.718;19.446;2023-03-15T01:37:00;98484.83;;;2.53;100.00
70971;BME280;58632;51.718;19.446;2023-03-15T01:39:27;98479.12;;;2.55;100.00
70971;BME280;58632;51.718;19.446;2023-03-15T01:41:53;98485.39;;;2.52;100.00
70971;BME280;58632;51.718;19.446;2023-03-15T01:44:18;98483.51;;;2.49;100.00
70971;BME280;58632;51.718;19.446;2023-03-15T01:46:44;98485.94;;;2.49;100.00
70971;BME280;58632;51.718;19.446;2023-03-15T01:49:10;98482.15;;;2.47;100.00
70971;BME280;58632;51.718;19.446;2023-03-15T01:51:45;98489.52;;;2.45;100.00
70971;BME280;58632;51.718;19.446;2023-03-15T01:54:17;98496.20;;;2.43;100.00
70971;BME280;58632;51.718;19.446;2023-03-15T01:56:44;98507.27;;;2.42;100.00
70971;BME280;58632;51.718;19.446;2023-03-15T01:59:13;98514.48;;;2.42;100.00
70971;BME280;58632;51.718;19.446;2023-03-15T02:01:40;98530.41;;;2.43;100.00
70971;BME280;58632;51.718;19.446;2023-03-15T02:04:10;98542.25;;;2.46;100.00
70971;BME280;58632;51.718;19.446;2023-03-15T02:06:37;98548.62;;;2.47;100.00
70971;BME280;58632;51.718;19.446;2023-03-15T02:09:07;98553.98;;;2.46;100.00
70971;BME280;58632;51.718;19.446;2023-03-15T02:11:33;98555.80;;;2.47;100.00
70971;BME280;58632;51.718;19.446;2023-03-15T02:13:59;98564.95;;;2.49;100.00
70971;BME280;58632;51.718;19.446;2023-03-15T02:16:26;98568.83;;;2.49;100.00
70971;BME280;58632;51.718;19.446;2023-03-15T02:18:52;98573.02;;;2.51;100.00
70971;BME280;58632;51.718;19.446;2023-03-15T02:23:43;98576.78;;;2.55;100.00
70971;BME280;58632;51.718;19.446;2023-03-15T02:28:38;98597.42;;;2.55;100.00
70971;BME280;58632;51.718;19.446;2023-03-15T02:31:04;98599.45;;;2.54;100.00
70971;BME280;58632;51.718;19.446;2023-03-15T02:33:40;98604.23;;;2.56;100.00
70971;BME280;58632;51.718;19.446;2023-03-15T02:36:14;98614.00;;;2.56;100.00
70971;BME280;58632;51.718;19.446;2023-03-15T02:38:41;98629.95;;;2.57;100.00
70971;BME280;58632;51.718;19.446;2023-03-15T02:41:07;98645.09;;;2.58;100.00
70971;BME280;58632;51.718;19.446;2023-03-15T02:43:32;98661.55;;;2.61;100.00
70971;BME280;58632;51.718;19.446;2023-03-15T02:45:59;98671.70;;;2.62;100.00
70971;BME280;58632;51.718;19.446;2023-03-15T02:48:25;98672.63;;;2.64;100.00
70971;BME280;58632;51.718;19.446;2023-03-15T02:50:51;98672.00;;;2.66;100.00
70971;BME280;58632;51.718;19.446;2023-03-15T02:53:17;98662.79;;;2.64;100.00
70971;BME280;58632;51.718;19.446;2023-03-15T02:55:42;98654.18;;;2.62;100.00
70971;BME280;58632;51.718;19.446;2023-03-15T02:58:08;98649.83;;;2.60;100.00
70971;BME280;58632;51.718;19.446;2023-03-15T03:00:33;98662.02;;;2.59;100.00
70971;BME280;58632;51.718;19.446;2023-03-15T03:02:59;98671.68;;;2.59;100.00
70971;BME280;58632;51.718;19.446;2023-03-15T03:05:25;98675.79;;;2.59;100.00
70971;BME280;58632;51.718;19.446;2023-03-15T03:07:51;98686.50;;;2.59;100.00
70971;BME280;58632;51.718;19.446;2023-03-15T03:10:17;98691.55;;;2.60;100.00
70971;BME280;58632;51.718;19.446;2023-03-15T03:12:43;98693.30;;;2.59;100.00
70971;BME280;58632;51.718;19.446;2023-03-15T03:15:09;98694.31;;;2.56;100.00
70971;BME280;58632;51.718;19.446;2023-03-15T03:17:35;98691.03;;;2.56;100.00
70971;BME280;58632;51.718;19.446;2023-03-15T03:20:09;98693.73;;;2.56;100.00
70971;BME280;58632;51.718;19.446;2023-03-15T03:22:36;98700.73;;;2.54;100.00
70971;BME280;58632;51.718;19.446;2023-03-15T03:25:01;98706.48;;;2.52;100.00
70971;BME280;58632;51.718;19.446;2023-03-15T03:27:28;98710.65;;;2.52;100.00
70971;BME280;58632;51.718;19.446;2023-03-15T03:29:53;98715.45;;;2.50;100.00
70971;BME280;58632;51.718;19.446;2023-03-15T03:32:19;98715.02;;;2.52;100.00
70971;BME280;58632;51.718;19.446;2023-03-15T03:34:44;98715.98;;;2.53;100.00
70971;BME280;58632;51.718;19.446;2023-03-15T03:37:18;98715.04;;;2.51;100.00
70971;BME280;58632;51.718;19.446;2023-03-15T03:39:44;98714.55;;;2.49;100.00
70971;BME280;58632;51.718;19.446;2023-03-15T03:42:10;98720.72;;;2.48;100.00
70971;BME280;58632;51.718;19.446;2023-03-15T03:44:36;98725.46;;;2.49;100.00
70971;BME280;58632;51.718;19.446;2023-03-15T03:47:01;98722.91;;;2.50;100.00
70971;BME280;58632;51.718;19.446;2023-03-15T03:49:27;98721.20;;;2.48;100.00
70971;BME280;58632;51.718;19.446;2023-03-15T03:51:52;98734.46;;;2.47;100.00
70971;BME280;58632;51.718;19.446;2023-03-15T03:54:17;98736.13;;;2.44;100.00
70971;BME280;58632;51.718;19.446;2023-03-15T03:56:46;98737.09;;;2.42;100.00
70971;BME280;58632;51.718;19.446;2023-03-15T03:59:11;98744.27;;;2.42;100.00
70971;BME280;58632;51.718;19.446;2023-03-15T04:01:37;98745.83;;;2.42;100.00
70971;BME280;58632;51.718;19.446;2023-03-15T04:04:02;98753.91;;;2.41;100.00
70971;BME280;58632;51.718;19.446;2023-03-15T04:06:28;98754.04;;;2.39;100.00
70971;BME280;58632;51.718;19.446;2023-03-15T04:08:53;98760.66;;;2.36;100.00
70971;BME280;58632;51.718;19.446;2023-03-15T04:11:19;98762.02;;;2.36;100.00
70971;BME280;58632;51.718;19.446;2023-03-15T04:13:45;98765.37;;;2.36;100.00
70971;BME280;58632;51.718;19.446;2023-03-15T04:16:11;98770.58;;;2.35;100.00
70971;BME280;58632;51.718;19.446;2023-03-15T04:18:38;98772.77;;;2.33;100.00
70971;BME280;58632;51.718;19.446;2023-03-15T04:21:04;98772.63;;;2.31;100.00
70971;BME280;58632;51.718;19.446;2023-03-15T04:23:34;98775.04;;;2.29;100.00
70971;BME280;58632;51.718;19.446;2023-03-15T04:26:00;98779.58;;;2.30;100.00
70971;BME280;58632;51.718;19.446;2023-03-15T04:28:26;98784.63;;;2.28;100.00
70971;BME280;58632;51.718;19.446;2023-03-15T04:30:51;98779.00;;;2.28;100.00
70971;BME280;58632;51.718;19.446;2023-03-15T04:33:26;98784.60;;;2.29;100.00
70971;BME280;58632;51.718;19.446;2023-03-15T04:35:51;98793.83;;;2.27;100.00
70971;BME280;58632;51.718;19.446;2023-03-15T04:38:17;98800.13;;;2.24;100.00
70971;BME280;58632;51.718;19.446;2023-03-15T04:40:43;98806.64;;;2.22;100.00
70971;BME280;58632;51.718;19.446;2023-03-15T04:43:08;98806.71;;;2.21;100.00
70971;BME280;58632;51.718;19.446;2023-03-15T04:45:34;98807.80;;;2.21;100.00
70971;BME280;58632;51.718;19.446;2023-03-15T04:48:00;98803.27;;;2.20;100.00
70971;BME280;58632;51.718;19.446;2023-03-15T04:50:26;98808.41;;;2.19;100.00
70971;BME280;58632;51.718;19.446;2023-03-15T04:52:52;98810.06;;;2.16;100.00
70971;BME280;58632;51.718;19.446;2023-03-15T04:55:17;98808.77;;;2.11;100.00
70971;BME280;58632;51.718;19.446;2023-03-15T04:57:43;98809.71;;;2.09;100.00
70971;BME280;58632;51.718;19.446;2023-03-15T05:00:09;98818.01;;;2.11;100.00
70971;BME280;58632;51.718;19.446;2023-03-15T05:02:37;98824.07;;;2.10;100.00
70971;BME280;58632;51.718;19.446;2023-03-15T05:05:08;98826.08;;;2.10;100.00
70971;BME280;58632;51.718;19.446;2023-03-15T05:07:34;98829.77;;;2.11;100.00
70971;BME280;58632;51.718;19.446;2023-03-15T05:10:00;98833.98;;;2.08;100.00
70971;BME280;58632;51.718;19.446;2023-03-15T05:12:26;98830.17;;;2.06;100.00
70971;BME280;58632;51.718;19.446;2023-03-15T05:14:52;98838.97;;;2.07;100.00
70971;BME280;58632;51.718;19.446;2023-03-15T05:17:18;98840.14;;;2.08;100.00
70971;BME280;58632;51.718;19.446;2023-03-15T05:19:43;98848.31;;;2.07;100.00
70971;BME280;58632;51.718;19.446;2023-03-15T05:22:10;98854.81;;;2.05;100.00
70971;BME280;58632;51.718;19.446;2023-03-15T05:24:36;98857.59;;;2.03;100.00
70971;BME280;58632;51.718;19.446;2023-03-15T05:27:01;98851.98;;;2.02;100.00
70971;BME280;58632;51.718;19.446;2023-03-15T05:29:28;98848.71;;;2.01;100.00
70971;BME280;58632;51.718;19.446;2023-03-15T05:31:54;98853.92;;;2.03;100.00
70971;BME280;58632;51.718;19.446;2023-03-15T05:34:20;98861.19;;;2.06;100.00
70971;BME280;58632;51.718;19.446;2023-03-15T05:36:51;98865.64;;;2.06;100.00
70971;BME280;58632;51.718;19.446;2023-03-15T05:39:17;98874.02;;;2.12;100.00
70971;BME280;58632;51.718;19.446;2023-03-15T05:41:42;98876.38;;;2.12;100.00
70971;BME280;58632;51.718;19.446;2023-03-15T05:44:08;98879.98;;;2.15;100.00
70971;BME280;58632;51.718;19.446;2023-03-15T05:46:33;98887.59;;;2.19;100.00
70971;BME280;58632;51.718;19.446;2023-03-15T05:48:59;98890.21;;;2.22;100.00
70971;BME280;58632;51.718;19.446;2023-03-15T05:51:24;98898.46;;;2.23;100.00
70971;BME280;58632;51.718;19.446;2023-03-15T05:53:50;98906.97;;;2.26;100.00
70971;BME280;58632;51.718;19.446;2023-03-15T05:56:15;98909.49;;;2.32;100.00
70971;BME280;58632;51.718;19.446;2023-03-15T05:58:41;98905.23;;;2.41;100.00
70971;BME280;58632;51.718;19.446;2023-03-15T06:01:06;98899.94;;;2.48;100.00
70971;BME280;58632;51.718;19.446;2023-03-15T06:03:32;98908.89;;;2.58;100.00
70971;BME280;58632;51.718;19.446;2023-03-15T06:05:57;98914.20;;;2.66;100.00
70971;BME280;58632;51.718;19.446;2023-03-15T06:08:23;98915.20;;;2.67;100.00
70971;BME280;58632;51.718;19.446;2023-03-15T06:10:49;98918.02;;;2.63;100.00
70971;BME280;58632;51.718;19.446;2023-03-15T06:13:14;98921.48;;;2.63;100.00
70971;BME280;58632;51.718;19.446;2023-03-15T06:15:40;98924.91;;;2.65;100.00
70971;BME280;58632;51.718;19.446;2023-03-15T06:18:06;98927.41;;;2.65;100.00
70971;BME280;58632;51.718;19.446;2023-03-15T06:20:32;98932.58;;;2.70;100.00
70971;BME280;58632;51.718;19.446;2023-03-15T06:22:57;98939.94;;;2.81;100.00
70971;BME280;58632;51.718;19.446;2023-03-15T06:25:23;98946.42;;;2.97;100.00
70971;BME280;58632;51.718;19.446;2023-03-15T06:27:49;98945.13;;;3.09;100.00
70971;BME280;58632;51.718;19.446;2023-03-15T06:30:15;98945.30;;;3.23;100.00
70971;BME280;58632;51.718;19.446;2023-03-15T06:32:40;98954.02;;;3.40;100.00
70971;BME280;58632;51.718;19.446;2023-03-15T06:35:06;98959.52;;;3.55;100.00
70971;BME280;58632;51.718;19.446;2023-03-15T06:37:32;98968.86;;;3.73;100.00
70971;BME280;58632;51.718;19.446;2023-03-15T06:40:00;98972.36;;;3.81;100.00
70971;BME280;58632;51.718;19.446;2023-03-15T06:42:25;98973.27;;;3.85;100.00
70971;BME280;58632;51.718;19.446;2023-03-15T06:44:51;98970.98;;;4.04;100.00
70971;BME280;58632;51.718;19.446;2023-03-15T06:47:17;98966.79;;;4.17;100.00
70971;BME280;58632;51.718;19.446;2023-03-15T06:49:42;98972.23;;;4.24;100.00
70971;BME280;58632;51.718;19.446;2023-03-15T06:52:08;98978.11;;;4.27;100.00
70971;BME280;58632;51.718;19.446;2023-03-15T06:54:33;98976.86;;;4.15;100.00
70971;BME280;58632;51.718;19.446;2023-03-15T06:56:59;98974.03;;;4.01;100.00
70971;BME280;58632;51.718;19.446;2023-03-15T06:59:24;98979.56;;;3.84;100.00
70971;BME280;58632;51.718;19.446;2023-03-15T07:01:50;98985.52;;;3.69;100.00
70971;BME280;58632;51.718;19.446;2023-03-15T07:04:16;98989.10;;;3.64;100.00
70971;BME280;58632;51.718;19.446;2023-03-15T07:06:41;98988.53;;;3.62;100.00
70971;BME280;58632;51.718;19.446;2023-03-15T07:09:07;98989.30;;;3.66;100.00
70971;BME280;58632;51.718;19.446;2023-03-15T07:11:32;98986.73;;;3.70;100.00
70971;BME280;58632;51.718;19.446;2023-03-15T07:13:58;98986.00;;;3.81;100.00
70971;BME280;58632;51.718;19.446;2023-03-15T07:16:24;98989.58;;;3.95;100.00
70971;BME280;58632;51.718;19.446;2023-03-15T07:18:49;98994.70;;;3.99;100.00
70971;BME280;58632;51.718;19.446;2023-03-15T07:21:15;99006.63;;;4.02;100.00
70971;BME280;58632;51.718;19.446;2023-03-15T07:23:40;99022.23;;;4.06;100.00
70971;BME280;58632;51.718;19.446;2023-03-15T07:26:06;99034.17;;;4.15;100.00
70971;BME280;58632;51.718;19.446;2023-03-15T07:28:32;99034.30;;;4.28;100.00
70971;BME280;58632;51.718;19.446;2023-03-15T07:30:58;99036.68;;;4.28;100.00
70971;BME280;58632;51.718;19.446;2023-03-15T07:33:25;99047.37;;;4.21;100.00
70971;BME280;58632;51.718;19.446;2023-03-15T07:35:51;99052.48;;;4.19;100.00
70971;BME280;58632;51.718;19.446;2023-03-15T07:38:17;99052.17;;;4.16;100.00
70971;BME280;58632;51.718;19.446;2023-03-15T07:40:43;99055.79;;;4.16;100.00
70971;BME280;58632;51.718;19.446;2023-03-15T07:43:09;99053.36;;;4.25;100.00
70971;BME280;58632;51.718;19.446;2023-03-15T07:45:34;99054.30;;;4.39;100.00
70971;BME280;58632;51.718;19.446;2023-03-15T07:48:00;99057.98;;;4.55;100.00
70971;BME280;58632;51.718;19.446;2023-03-15T07:50:26;99058.27;;;4.68;100.00
70971;BME280;58632;51.718;19.446;2023-03-15T07:52:51;99059.34;;;4.84;100.00
70971;BME280;58632;51.718;19.446;2023-03-15T07:55:17;99064.80;;;4.96;100.00
70971;BME280;58632;51.718;19.446;2023-03-15T07:57:42;99069.70;;;5.08;100.00
70971;BME280;58632;51.718;19.446;2023-03-15T08:00:08;99071.67;;;5.33;100.00
70971;BME280;58632;51.718;19.446;2023-03-15T08:02:36;99076.41;;;5.58;100.00
70971;BME280;58632;51.718;19.446;2023-03-15T08:05:02;99083.10;;;5.86;100.00
70971;BME280;58632;51.718;19.446;2023-03-15T08:07:28;99086.77;;;6.05;100.00
70971;BME280;58632;51.718;19.446;2023-03-15T08:09:54;99085.37;;;6.26;100.00
70971;BME280;58632;51.718;19.446;2023-03-15T08:12:22;99090.75;;;6.44;100.00
70971;BME280;58632;51.718;19.446;2023-03-15T08:14:47;99093.36;;;6.54;100.00
70971;BME280;58632;51.718;19.446;2023-03-15T08:17:14;99097.77;;;6.56;100.00
70971;BME280;58632;51.718;19.446;2023-03-15T08:19:40;99100.25;;;6.61;100.00
70971;BME280;58632;51.718;19.446;2023-03-15T08:22:06;99107.11;;;6.63;100.00
70971;BME280;58632;51.718;19.446;2023-03-15T08:24:31;99106.39;;;6.80;100.00
70971;BME280;58632;51.718;19.446;2023-03-15T08:26:57;99116.90;;;7.02;100.00
70971;BME280;58632;51.718;19.446;2023-03-15T08:29:22;99119.95;;;7.20;100.00
70971;BME280;58632;51.718;19.446;2023-03-15T08:31:48;99116.90;;;7.28;100.00
70971;BME280;58632;51.718;19.446;2023-03-15T08:34:14;99119.50;;;7.39;100.00
70971;BME280;58632;51.718;19.446;2023-03-15T08:36:40;99122.81;;;7.36;100.00
70971;BME280;58632;51.718;19.446;2023-03-15T08:39:05;99127.31;;;7.35;100.00
70971;BME280;58632;51.718;19.446;2023-03-15T08:41:32;99127.88;;;7.38;100.00
70971;BME280;58632;51.718;19.446;2023-03-15T08:43:58;99134.46;;;7.33;100.00
70971;BME280;58632;51.718;19.446;2023-03-15T08:46:24;99141.91;;;7.50;100.00
70971;BME280;58632;51.718;19.446;2023-03-15T08:48:50;99144.90;;;7.76;100.00
70971;BME280;58632;51.718;19.446;2023-03-15T08:51:15;99145.73;;;7.70;100.00
70971;BME280;58632;51.718;19.446;2023-03-15T08:53:43;99153.15;;;7.49;100.00
70971;BME280;58632;51.718;19.446;2023-03-15T08:56:08;99159.66;;;7.29;100.00
70971;BME280;58632;51.718;19.446;2023-03-15T08:58:34;99161.82;;;7.24;100.00
70971;BME280;58632;51.718;19.446;2023-03-15T09:01:00;99163.77;;;7.16;100.00
70971;BME280;58632;51.718;19.446;2023-03-15T09:03:26;99163.81;;;6.95;100.00
70971;BME280;58632;51.718;19.446;2023-03-15T09:05:55;99167.62;;;6.87;100.00
70971;BME280;58632;51.718;19.446;2023-03-15T09:08:20;99168.67;;;6.98;100.00
70971;BME280;58632;51.718;19.446;2023-03-15T09:10:52;99172.42;;;6.94;100.00
70971;BME280;58632;51.718;19.446;2023-03-15T09:13:18;99176.56;;;6.90;100.00
70971;BME280;58632;51.718;19.446;2023-03-15T09:15:43;99181.66;;;6.91;100.00
70971;BME280;58632;51.718;19.446;2023-03-15T09:18:09;99183.77;;;6.83;100.00
70971;BME280;58632;51.718;19.446;2023-03-15T09:20:35;99190.80;;;6.93;100.00
70971;BME280;58632;51.718;19.446;2023-03-15T09:23:00;99199.34;;;7.11;100.00
70971;BME280;58632;51.718;19.446;2023-03-15T09:25:26;99205.80;;;7.16;100.00
70971;BME280;58632;51.718;19.446;2023-03-15T09:27:52;99205.72;;;7.11;100.00
70971;BME280;58632;51.718;19.446;2023-03-15T09:30:18;99207.76;;;7.02;100.00
70971;BME280;58632;51.718;19.446;2023-03-15T09:32:43;99208.70;;;6.87;100.00
70971;BME280;58632;51.718;19.446;2023-03-15T09:35:12;99210.85;;;6.84;100.00
70971;BME280;58632;51.718;19.446;2023-03-15T09:37:37;99210.87;;;6.87;100.00
70971;BME280;58632;51.718;19.446;2023-03-15T09:40:03;99215.93;;;6.92;100.00
70971;BME280;58632;51.718;19.446;2023-03-15T09:42:53;99212.13;;;6.94;100.00
70971;BME280;58632;51.718;19.446;2023-03-15T09:45:17;99201.48;;;7.14;100.00
70971;BME280;58632;51.718;19.446;2023-03-15T09:47:53;99200.55;;;7.38;100.00
70971;BME280;58632;51.718;19.446;2023-03-15T09:50:25;99200.65;;;7.59;100.00
70971;BME280;58632;51.718;19.446;2023-03-15T09:52:55;99205.84;;;7.82;100.00
70971;BME280;58632;51.718;19.446;2023-03-15T09:55:23;99207.60;;;7.96;92.75
70971;BME280;58632;51.718;19.446;2023-03-15T09:57:51;99202.21;;;7.93;90.46
70971;BME280;58632;51.718;19.446;2023-03-15T10:01:01;99208.94;;;7.97;91.34
70971;BME280;58632;51.718;19.446;2023-03-15T10:03:10;99202.23;;;8.13;92.14
70971;BME280;58632;51.718;19.446;2023-03-15T10:05:42;99207.91;;;8.20;87.05
70971;BME280;58632;51.718;19.446;2023-03-15T10:08:09;99213.69;;;8.22;77.92
70971;BME280;58632;51.718;19.446;2023-03-15T10:10:36;99212.09;;;8.21;80.45
70971;BME280;58632;51.718;19.446;2023-03-15T10:13:07;99216.48;;;8.18;82.40
70971;BME280;58632;51.718;19.446;2023-03-15T10:18:20;99212.88;;;8.43;74.68
70971;BME280;58632;51.718;19.446;2023-03-15T10:20:59;99213.43;;;8.47;81.08
70971;BME280;58632;51.718;19.446;2023-03-15T10:23:48;99215.16;;;8.66;78.16
70971;BME280;58632;51.718;19.446;2023-03-15T10:26:18;99210.16;;;8.72;70.42
70971;BME280;58632;51.718;19.446;2023-03-15T10:28:45;99208.41;;;8.62;69.84
70971;BME280;58632;51.718;19.446;2023-03-15T10:31:13;99214.92;;;8.68;75.80
70971;BME280;58632;51.718;19.446;2023-03-15T10:33:39;99210.88;;;8.69;72.54
70971;BME280;58632;51.718;19.446;2023-03-15T10:36:12;99210.74;;;8.71;78.38
70971;BME280;58632;51.718;19.446;2023-03-15T10:38:38;99213.75;;;8.81;73.48
70971;BME280;58632;51.718;19.446;2023-03-15T10:41:04;99216.81;;;8.73;67.47
70971;BME280;58632;51.718;19.446;2023-03-15T10:43:31;99221.42;;;8.65;73.80
70971;BME280;58632;51.718;19.446;2023-03-15T10:46:10;99228.09;;;8.64;75.09
70971;BME280;58632;51.718;19.446;2023-03-15T10:48:37;99220.65;;;8.58;72.77
70971;BME280;58632;51.718;19.446;2023-03-15T10:51:03;99223.86;;;8.41;69.11
70971;BME280;58632;51.718;19.446;2023-03-15T10:53:29;99231.24;;;8.28;70.69
70971;BME280;58632;51.718;19.446;2023-03-15T10:55:59;99233.22;;;8.16;68.28
70971;BME280;58632;51.718;19.446;2023-03-15T10:58:26;99232.64;;;8.09;70.78
70971;BME280;58632;51.718;19.446;2023-03-15T11:00:57;99231.20;;;8.15;75.80
70971;BME280;58632;51.718;19.446;2023-03-15T11:03:23;99227.86;;;8.35;77.80
70971;BME280;58632;51.718;19.446;2023-03-15T11:05:50;99223.92;;;8.50;74.82
70971;BME280;58632;51.718;19.446;2023-03-15T11:08:24;99225.14;;;8.47;68.73
70971;BME280;58632;51.718;19.446;2023-03-15T11:10:57;99215.36;;;8.41;72.26
70971;BME280;58632;51.718;19.446;2023-03-15T11:13:24;99223.60;;;8.46;74.41
70971;BME280;58632;51.718;19.446;2023-03-15T11:15:55;99225.66;;;8.54;76.03
70971;BME280;58632;51.718;19.446;2023-03-15T11:18:28;99225.38;;;8.56;75.54
70971;BME280;58632;51.718;19.446;2023-03-15T11:20:55;99225.72;;;8.57;74.54
70971;BME280;58632;51.718;19.446;2023-03-15T11:23:22;99220.98;;;8.53;73.57
70971;BME280;58632;51.718;19.446;2023-03-15T11:25:49;99216.32;;;8.45;72.89
70971;BME280;58632;51.718;19.446;2023-03-15T11:28:17;99215.96;;;8.29;71.27
70971;BME280;58632;51.718;19.446;2023-03-15T11:30:43;99224.79;;;8.24;78.05
70971;BME280;58632;51.718;19.446;2023-03-15T11:33:09;99220.66;;;8.35;78.92
70971;BME280;58632;51.718;19.446;2023-03-15T11:35:43;99222.42;;;8.42;75.84
70971;BME280;58632;51.718;19.446;2023-03-15T11:38:16;99223.34;;;8.40;72.28
70971;BME280;58632;51.718;19.446;2023-03-15T11:40:43;99226.97;;;8.26;71.20
70971;BME280;58632;51.718;19.446;2023-03-15T11:45:59;99229.57;;;8.15;69.49
70971;BME280;58632;51.718;19.446;2023-03-15T11:48:28;99228.88;;;8.03;71.74
70971;BME280;58632;51.718;19.446;2023-03-15T11:50:55;99228.98;;;8.07;75.09
70971;BME280;58632;51.718;19.446;2023-03-15T11:53:22;99230.61;;;8.03;70.65
70971;BME280;58632;51.718;19.446;2023-03-15T11:55:50;99234.84;;;8.02;75.14
70971;BME280;58632;51.718;19.446;2023-03-15T11:58:35;99237.04;;;8.15;77.05
70971;BME280;58632;51.718;19.446;2023-03-15T12:01:08;99238.30;;;8.15;71.10
70971;BME280;58632;51.718;19.446;2023-03-15T12:03:38;99237.30;;;8.10;76.99
70971;BME280;58632;51.718;19.446;2023-03-15T12:06:07;99238.09;;;8.07;69.67
70971;BME280;58632;51.718;19.446;2023-03-15T12:08:42;99237.04;;;7.94;70.59
70971;BME280;58632;51.718;19.446;2023-03-15T12:16:19;99234.71;;;8.06;75.61
70971;BME280;58632;51.718;19.446;2023-03-15T12:18:45;99234.96;;;8.17;76.88
70971;BME280;58632;51.718;19.446;2023-03-15T12:21:11;99235.19;;;8.22;78.99
70971;BME280;58632;51.718;19.446;2023-03-15T12:23:43;99238.56;;;8.27;75.82
70971;BME280;58632;51.718;19.446;2023-03-15T12:26:57;99239.04;;;8.21;72.44
70971;BME280;58632;51.718;19.446;2023-03-15T12:31:24;99238.78;;;8.02;76.68
70971;BME280;58632;51.718;19.446;2023-03-15T12:33:51;99241.16;;;7.89;74.41
70971;BME280;58632;51.718;19.446;2023-03-15T12:36:37;99242.71;;;7.73;77.76
70971;BME280;58632;51.718;19.446;2023-03-15T12:41:41;99246.52;;;7.58;75.50
70971;BME280;58632;51.718;19.446;2023-03-15T12:46:52;99249.60;;;7.59;78.72
70971;BME280;58632;51.718;19.446;2023-03-15T12:51:54;99251.42;;;7.60;78.62
70971;BME280;58632;51.718;19.446;2023-03-15T12:54:21;99258.31;;;7.56;78.76
70971;BME280;58632;51.718;19.446;2023-03-15T12:56:48;99261.91;;;7.53;78.55
70971;BME280;58632;51.718;19.446;2023-03-15T13:01:44;99269.60;;;7.51;78.80
70971;BME280;58632;51.718;19.446;2023-03-15T13:04:10;99270.98;;;7.46;75.92
70971;BME280;58632;51.718;19.446;2023-03-15T13:09:26;99276.23;;;7.56;79.44
70971;BME280;58632;51.718;19.446;2023-03-15T13:19:44;99288.10;;;7.68;75.29
70971;BME280;58632;51.718;19.446;2023-03-15T13:24:44;99288.00;;;7.77;70.64
70971;BME280;58632;51.718;19.446;2023-03-15T13:29:41;99298.19;;;7.69;73.21
70971;BME280;58632;51.718;19.446;2023-03-15T13:32:10;99300.40;;;7.71;69.71
70971;BME280;58632;51.718;19.446;2023-03-15T13:34:37;99302.89;;;7.71;65.45
70971;BME280;58632;51.718;19.446;2023-03-15T13:37:03;99303.08;;;7.68;67.00
70971;BME280;58632;51.718;19.446;2023-03-15T13:39:30;99306.59;;;7.63;69.76